createdAt,value
2022-08-03T00:02:36.183Z,26.63
2022-08-03T00:05:39.320Z,26.80
2022-08-03T00:08:42.473Z,26.57
2022-08-03T00:11:45.605Z,26.53
2022-08-03T00:14:48.784Z,26.79
2022-08-03T00:17:54.771Z,26.33
2022-08-03T00:20:57.989Z,26.10
2022-08-03T00:24:01.165Z,25.90
2022-08-03T00:27:04.326Z,25.78
2022-08-03T00:30:08.190Z,25.80
2022-08-03T00:33:11.341Z,25.86
2022-08-03T00:36:14.395Z,26.34
2022-08-03T00:39:18.522Z,26.21
2022-08-03T00:42:21.767Z,26.23
2022-08-03T00:45:33.948Z,26.32
2022-08-03T00:48:37.176Z,26.47
2022-08-03T00:51:40.322Z,26.71
2022-08-03T00:54:43.555Z,26.44
2022-08-03T00:57:47.622Z,26.38
2022-08-03T01:00:51.241Z,26.40
2022-08-03T01:03:54.422Z,26.70
2022-08-03T01:07:28.634Z,26.74
2022-08-03T01:10:56.416Z,26.73
2022-08-03T01:14:18.890Z,26.80
2022-08-03T01:17:25.697Z,26.70
2022-08-03T01:20:34.305Z,26.52
2022-08-03T01:24:13.346Z,26.63
2022-08-03T01:27:21.647Z,26.56
2022-08-03T01:30:32.988Z,26.54
2022-08-03T01:33:47.864Z,26.29
2022-08-03T01:36:54.583Z,26.40
2022-08-03T01:39:58.980Z,26.12
2022-08-03T01:43:03.316Z,26.34
2022-08-03T01:46:08.386Z,26.58
2022-08-03T01:49:12.835Z,26.40
2022-08-03T01:52:19.320Z,26.26
2022-08-03T01:55:23.803Z,26.41
2022-08-03T01:58:30.812Z,26.18
2022-08-03T02:02:15.473Z,26.40
2022-08-03T02:04:59.811Z,26.21
2022-08-03T02:08:04.848Z,26.16
2022-08-03T02:11:09.023Z,26.11
2022-08-03T02:14:12.419Z,25.98
2022-08-03T02:17:15.735Z,25.88
2022-08-03T02:20:19.341Z,25.99
2022-08-03T02:23:22.702Z,26.15
2022-08-03T02:26:30.199Z,26.24
2022-08-03T02:29:39.444Z,26.28
2022-08-03T02:32:52.104Z,26.22
2022-08-03T02:35:58.398Z,26.05
2022-08-03T02:39:04.939Z,25.87
2022-08-03T02:42:10.410Z,26.00
2022-08-03T02:45:17.962Z,25.99
2022-08-03T02:48:27.766Z,25.77
2022-08-03T02:51:35.102Z,25.76
2022-08-03T02:54:41.926Z,25.88
2022-08-03T02:57:46.002Z,25.98
2022-08-03T03:00:50.291Z,26.00
2022-08-03T03:03:55.921Z,25.95
2022-08-03T03:06:59.598Z,26.10
2022-08-03T03:10:05.780Z,25.66
2022-08-03T03:13:10.102Z,25.87
2022-08-03T03:16:14.387Z,25.93
2022-08-03T03:19:18.251Z,25.81
2022-08-03T03:22:21.960Z,25.67
2022-08-03T03:25:25.441Z,25.74
2022-08-03T03:28:29.025Z,25.75
2022-08-03T03:31:32.294Z,25.74
2022-08-03T03:34:35.695Z,25.60
2022-08-03T03:37:38.777Z,25.97
2022-08-03T03:40:42.369Z,26.06
2022-08-03T03:43:45.646Z,26.10
2022-08-03T03:46:52.537Z,26.01
2022-08-03T03:49:55.725Z,25.56
2022-08-03T03:53:01.258Z,25.89
2022-08-03T03:56:04.603Z,25.89
2022-08-03T03:59:07.711Z,25.79
2022-08-03T04:02:12.021Z,25.95
2022-08-03T04:05:15.772Z,25.90
2022-08-03T04:08:19.642Z,25.98
2022-08-03T04:11:30.442Z,25.90
2022-08-03T04:14:36.116Z,25.59
2022-08-03T04:17:40.114Z,25.76
2022-08-03T04:20:47.579Z,25.88
2022-08-03T04:23:54.055Z,25.86
2022-08-03T04:26:58.358Z,25.54
2022-08-03T04:30:06.927Z,25.72
2022-08-03T04:33:12.022Z,25.95
2022-08-03T04:36:19.018Z,25.93
2022-08-03T04:39:25.591Z,25.63
2022-08-03T04:42:29.464Z,25.54
2022-08-03T04:45:33.323Z,25.69
2022-08-03T04:48:36.627Z,25.73
2022-08-03T04:51:39.741Z,25.70
2022-08-03T04:54:50.236Z,25.58
2022-08-03T04:57:53.874Z,25.72
2022-08-03T05:00:57.104Z,25.73
2022-08-03T05:04:00.106Z,25.71
2022-08-03T05:07:12.358Z,25.82
2022-08-03T05:10:17.708Z,25.76
2022-08-03T05:13:21.824Z,25.77
2022-08-03T05:16:25.302Z,25.73
2022-08-03T05:19:30.781Z,25.47
2022-08-03T05:22:34.022Z,25.58
2022-08-03T05:25:37.129Z,25.75
2022-08-03T05:28:50.590Z,25.66
2022-08-03T05:31:55.226Z,25.67
2022-08-03T05:34:58.298Z,25.67
2022-08-03T05:38:02.230Z,25.72
2022-08-03T05:41:21.732Z,25.73
2022-08-03T05:44:27.029Z,25.99
2022-08-03T05:47:30.087Z,26.02
2022-08-03T05:50:33.269Z,26.06
2022-08-03T05:53:36.683Z,25.92
2022-08-03T05:56:40.042Z,25.67
2022-08-03T05:59:53.995Z,25.67
2022-08-03T06:03:01.356Z,25.59
2022-08-03T06:06:04.560Z,26.05
2022-08-03T06:09:07.648Z,25.70
2022-08-03T06:12:14.030Z,25.32
2022-08-03T06:15:17.711Z,25.27
2022-08-03T06:18:20.769Z,25.45
2022-08-03T06:21:23.846Z,25.38
2022-08-03T06:24:30.202Z,25.74
2022-08-03T06:27:37.165Z,25.69
2022-08-03T06:30:41.529Z,25.42
2022-08-03T06:34:30.851Z,25.25
2022-08-03T06:37:09.986Z,25.46
2022-08-03T06:40:14.853Z,25.32
2022-08-03T06:43:25.004Z,25.24
2022-08-03T06:46:28.176Z,25.26
2022-08-03T06:49:32.206Z,25.48
2022-08-03T06:52:37.621Z,25.72
2022-08-03T06:55:42.376Z,25.32
2022-08-03T06:58:45.700Z,25.46
2022-08-03T07:01:48.819Z,25.77
2022-08-03T07:04:51.986Z,25.82
2022-08-03T07:07:58.517Z,25.94
2022-08-03T07:11:02.566Z,26.14
2022-08-03T07:14:06.007Z,25.89
2022-08-03T07:17:12.021Z,25.88
2022-08-03T07:20:17.295Z,25.86
2022-08-03T07:23:20.362Z,26.10
2022-08-03T07:26:23.371Z,26.16
2022-08-03T07:29:29.155Z,26.16
2022-08-03T07:32:50.581Z,26.14
2022-08-03T07:35:55.067Z,26.14
2022-08-03T07:38:58.118Z,26.24
2022-08-03T07:42:02.261Z,26.33
2022-08-03T07:45:05.939Z,26.31
2022-08-03T07:48:12.131Z,26.25
2022-08-03T07:51:17.389Z,26.48
2022-08-03T07:54:20.541Z,26.55
2022-08-03T07:57:24.043Z,26.24
2022-08-03T08:00:29.459Z,26.14
2022-08-03T08:03:49.889Z,26.32
2022-08-03T08:06:55.608Z,26.39
2022-08-03T08:09:58.671Z,26.48
2022-08-03T08:13:02.327Z,26.42
2022-08-03T08:16:06.510Z,26.42
2022-08-03T08:19:09.704Z,26.18
2022-08-03T08:22:16.185Z,26.34
2022-08-03T08:25:22.434Z,26.42
2022-08-03T08:28:30.711Z,26.23
2022-08-03T08:31:36.161Z,25.92
2022-08-03T08:34:40.802Z,25.95
2022-08-03T08:37:44.103Z,26.05
2022-08-03T08:40:56.583Z,26.14
2022-08-03T08:44:00.233Z,25.82
2022-08-03T08:47:03.888Z,26.29
2022-08-03T08:50:10.344Z,26.19
2022-08-03T08:53:31.015Z,26.29
2022-08-03T08:56:34.861Z,26.40
2022-08-03T08:59:49.105Z,26.35
2022-08-03T09:02:53.385Z,26.30
2022-08-03T09:05:56.747Z,26.37
2022-08-03T09:08:59.841Z,26.38
2022-08-03T09:12:21.110Z,26.19
2022-08-03T09:15:31.545Z,26.24
2022-08-03T09:18:34.602Z,26.03
2022-08-03T09:21:37.724Z,26.13
2022-08-03T09:25:23.260Z,26.15
2022-08-03T09:29:00.736Z,26.03
2022-08-03T09:32:04.013Z,26.18
2022-08-03T09:35:09.507Z,25.98
2022-08-03T09:38:18.276Z,26.16
2022-08-03T09:41:21.443Z,26.23
2022-08-03T09:44:35.628Z,26.28
2022-08-03T09:47:44.754Z,26.38
2022-08-03T09:51:14.218Z,26.08
2022-08-03T09:54:30.389Z,26.04
2022-08-03T09:57:33.605Z,25.96
2022-08-03T10:01:01.252Z,26.10
2022-08-03T10:04:05.405Z,26.30
2022-08-03T10:07:10.955Z,26.46
2022-08-03T10:10:30.467Z,26.66
2022-08-03T10:13:35.481Z,26.19
2022-08-03T10:16:40.695Z,26.48
2022-08-03T10:19:43.901Z,26.33
2022-08-03T10:22:50.062Z,26.56
2022-08-03T10:25:57.985Z,26.40
2022-08-03T10:29:03.748Z,26.57
2022-08-03T10:32:32.462Z,26.19
2022-08-03T10:35:37.040Z,26.06
2022-08-03T10:38:51.220Z,26.28
2022-08-03T10:41:54.681Z,26.36
2022-08-03T10:45:08.617Z,26.33
2022-08-03T10:48:12.042Z,26.39
2022-08-03T10:51:16.059Z,26.40
2022-08-03T10:54:37.893Z,26.32
2022-08-03T10:57:56.189Z,26.48
2022-08-03T11:01:01.856Z,26.44
2022-08-03T11:04:09.438Z,26.61
2022-08-03T11:07:17.437Z,26.38
2022-08-03T11:10:33.202Z,26.11
2022-08-03T11:13:36.349Z,26.28
2022-08-03T11:17:06.768Z,26.43
2022-08-03T11:20:10.250Z,26.51
2022-08-03T11:23:13.909Z,26.41
2022-08-03T11:26:21.015Z,26.14
2022-08-03T11:29:31.574Z,26.17
2022-08-03T11:32:46.560Z,26.09
2022-08-03T11:36:03.853Z,26.15
2022-08-03T11:39:17.199Z,25.84
2022-08-03T11:42:23.384Z,25.75
2022-08-03T11:45:26.731Z,25.75
2022-08-03T11:48:36.171Z,25.79
2022-08-03T11:51:40.098Z,26.08
2022-08-03T11:54:43.744Z,25.95
2022-08-03T11:59:01.264Z,26.14
2022-08-03T12:01:12.861Z,26.08
2022-08-03T12:04:18.063Z,26.09
2022-08-03T12:08:02.264Z,26.23
2022-08-03T12:10:51.338Z,26.32
2022-08-03T12:14:45.072Z,26.42
2022-08-03T12:17:17.900Z,26.52
2022-08-03T12:20:31.413Z,26.52
2022-08-03T12:23:39.180Z,26.46
2022-08-03T12:26:58.576Z,26.51
2022-08-03T12:30:04.077Z,26.58
2022-08-03T12:33:33.875Z,26.42
2022-08-03T12:36:37.595Z,26.29
2022-08-03T12:40:00.655Z,26.29
2022-08-03T12:43:12.356Z,26.04
2022-08-03T12:46:18.136Z,26.34
2022-08-03T12:49:21.272Z,26.06
2022-08-03T12:52:24.548Z,26.19
2022-08-03T12:55:28.100Z,26.45
2022-08-03T12:58:35.880Z,26.66
2022-08-03T13:01:52.182Z,26.88
2022-08-03T13:04:58.623Z,26.83
2022-08-03T13:08:01.732Z,26.80
2022-08-03T13:11:52.509Z,26.90
2022-08-03T13:15:00.170Z,26.79
2022-08-03T13:18:03.315Z,26.71
2022-08-03T13:21:10.441Z,26.81
2022-08-03T13:24:13.517Z,26.90
2022-08-03T13:28:04.654Z,26.93
2022-08-03T13:30:41.695Z,27.06
2022-08-03T13:33:45.028Z,27.23
2022-08-03T13:37:08.097Z,27.32
2022-08-03T13:40:14.837Z,27.56
2022-08-03T13:43:19.977Z,27.46
2022-08-03T13:46:23.129Z,27.36
2022-08-03T13:49:26.425Z,27.72
2022-08-03T13:52:30.853Z,27.50
2022-08-03T13:55:34.041Z,27.69
2022-08-03T13:58:37.134Z,27.65
2022-08-03T14:01:54.981Z,27.47
2022-08-03T14:04:58.741Z,27.69
2022-08-03T14:08:04.209Z,27.82
2022-08-03T14:11:08.373Z,27.98
2022-08-03T14:14:11.668Z,28.52
2022-08-03T14:17:16.318Z,28.44
2022-08-03T14:20:37.759Z,28.75
2022-08-03T14:23:42.735Z,29.08
2022-08-03T14:26:47.901Z,28.78
2022-08-03T14:29:52.502Z,28.86
2022-08-03T14:33:00.458Z,28.29
2022-08-03T14:36:04.017Z,28.79
2022-08-03T14:39:07.226Z,28.43
2022-08-03T14:42:10.689Z,29.14
2022-08-03T14:45:19.773Z,29.42
2022-08-03T14:50:31.791Z,29.08
2022-08-03T14:51:51.430Z,29.25
2022-08-03T14:54:56.879Z,28.83
2022-08-03T14:57:59.942Z,28.95
2022-08-03T15:01:03.167Z,28.86
2022-08-03T15:04:26.301Z,29.02
2022-08-03T15:07:29.388Z,29.20
2022-08-03T15:10:40.432Z,29.75
2022-08-03T15:13:48.249Z,29.50
2022-08-03T15:16:51.426Z,29.54
2022-08-03T15:20:01.245Z,29.28
2022-08-03T15:23:12.096Z,29.55
2022-08-03T15:26:32.838Z,29.16
2022-08-03T15:30:08.876Z,29.18
2022-08-03T15:33:00.323Z,29.66
2022-08-03T15:36:04.409Z,29.06
2022-08-03T15:39:07.780Z,29.54
2022-08-03T15:42:10.912Z,29.97
2022-08-03T15:45:14.023Z,29.80
2022-08-03T15:48:21.107Z,30.75
2022-08-03T15:51:29.773Z,30.92
2022-08-03T15:54:32.870Z,29.97
2022-08-03T15:59:09.201Z,30.36
2022-08-03T16:01:01.503Z,30.83
2022-08-03T16:04:04.728Z,30.13
2022-08-03T16:07:08.012Z,30.97
2022-08-03T16:10:18.205Z,30.85
2022-08-03T16:13:21.361Z,30.58
2022-08-03T16:16:44.399Z,30.98
2022-08-03T16:19:47.503Z,30.95
2022-08-03T16:22:53.836Z,31.53
2022-08-03T16:25:57.108Z,31.02
2022-08-03T16:29:02.198Z,31.51
2022-08-03T16:32:09.190Z,31.89
2022-08-03T16:35:19.694Z,32.21
2022-08-03T16:38:24.357Z,31.84
2022-08-03T16:41:27.476Z,32.12
2022-08-03T16:44:50.707Z,31.70
2022-08-03T16:48:01.454Z,31.54
2022-08-03T16:51:09.183Z,32.37
2022-08-03T16:54:14.003Z,33.03
2022-08-03T16:57:29.943Z,33.64
2022-08-03T17:00:41.285Z,32.46
2022-08-03T17:04:01.951Z,32.58
2022-08-03T17:07:07.125Z,32.26
2022-08-03T17:10:12.114Z,32.63
2022-08-03T17:13:22.612Z,33.02
2022-08-03T17:16:26.275Z,33.09
2022-08-03T17:19:30.530Z,33.23
2022-08-03T17:22:38.090Z,32.63
2022-08-03T17:26:01.994Z,33.18
2022-08-03T17:29:11.203Z,33.49
2022-08-03T17:32:21.765Z,33.88
2022-08-03T17:35:34.691Z,33.82
2022-08-03T17:38:41.587Z,33.36
2022-08-03T17:41:50.000Z,33.27
2022-08-03T17:44:54.913Z,33.72
2022-08-03T17:47:59.484Z,33.58
2022-08-03T17:51:08.758Z,33.48
2022-08-03T17:54:24.971Z,33.88
2022-08-03T17:58:01.509Z,35.38
2022-08-03T18:04:30.774Z,33.78
2022-08-03T18:07:41.884Z,32.95
2022-08-03T18:10:49.918Z,33.33
2022-08-03T18:14:09.908Z,33.92
2022-08-03T18:17:54.596Z,33.26
2022-08-03T18:20:52.391Z,32.18
2022-08-03T18:23:59.840Z,29.74
2022-08-03T18:27:03.793Z,30.36
2022-08-03T18:30:11.931Z,30.93
2022-08-03T18:34:16.658Z,29.42
2022-08-03T18:36:47.689Z,28.85
2022-08-03T18:39:52.986Z,29.16
2022-08-03T18:42:56.545Z,29.55
2022-08-03T18:46:05.333Z,29.30
2022-08-03T18:49:12.083Z,28.33
2022-08-03T18:52:18.325Z,27.85
2022-08-03T18:55:33.404Z,28.27
2022-08-03T18:58:48.289Z,27.76
2022-08-03T19:02:01.102Z,28.19
2022-08-03T19:05:09.578Z,28.14
2022-08-03T19:08:17.598Z,27.69
2022-08-03T19:11:28.293Z,27.70
2022-08-03T19:14:36.137Z,27.56
2022-08-03T19:17:52.588Z,27.29
2022-08-03T19:20:57.071Z,27.06
2022-08-03T19:24:09.654Z,26.64
2022-08-03T19:27:15.877Z,27.02
2022-08-03T19:30:26.220Z,26.90
2022-08-03T19:33:31.112Z,26.66
2022-08-03T19:36:54.266Z,26.44
2022-08-03T19:39:57.428Z,26.07
2022-08-03T19:43:04.877Z,26.17
2022-08-03T19:46:12.907Z,26.12
2022-08-03T19:49:20.808Z,25.96
2022-08-03T19:52:24.344Z,25.88
2022-08-03T19:55:37.197Z,25.83
2022-08-03T19:58:43.380Z,25.78
2022-08-03T20:01:50.598Z,25.66
2022-08-03T20:04:54.347Z,25.73
2022-08-03T20:08:04.017Z,25.47
2022-08-03T20:11:07.145Z,25.77
2022-08-03T20:14:11.312Z,25.44
2022-08-03T20:17:16.561Z,25.22
2022-08-03T20:20:31.367Z,24.72
2022-08-03T20:23:38.418Z,25.14
2022-08-03T20:27:02.144Z,25.50
2022-08-03T20:30:07.979Z,25.62
2022-08-03T20:33:11.660Z,25.54
2022-08-03T20:36:21.563Z,24.93
2022-08-03T20:39:30.174Z,24.53
2022-08-03T20:42:34.608Z,24.78
2022-08-03T20:46:00.771Z,24.84
2022-08-03T20:49:03.835Z,24.86
2022-08-03T20:52:07.437Z,24.99
2022-08-03T20:55:47.517Z,25.11
2022-08-03T21:02:08.744Z,24.99
2022-08-03T21:05:12.859Z,25.12
2022-08-03T21:08:18.612Z,24.94
2022-08-03T21:11:22.367Z,24.98
2022-08-03T21:12:56.255Z,34.63
2022-08-03T21:13:13.617Z,25.35
2022-08-03T21:14:34.372Z,24.94
2022-08-03T21:17:43.354Z,24.95
2022-08-03T21:20:47.243Z,25.01
2022-08-03T21:23:52.959Z,25.26
2022-08-03T21:26:56.221Z,25.40
2022-08-03T21:30:05.140Z,25.34
2022-08-03T21:33:08.753Z,25.34
2022-08-03T21:36:11.999Z,25.35
2022-08-03T21:39:15.097Z,25.43
2022-08-03T21:42:18.193Z,25.59
2022-08-03T21:45:21.259Z,25.27
2022-08-03T21:48:26.253Z,25.28
2022-08-03T21:51:30.316Z,25.17
2022-08-03T21:54:36.562Z,25.09
2022-08-03T21:57:45.035Z,25.32
2022-08-03T22:00:48.172Z,25.43
2022-08-03T22:03:54.357Z,25.18
2022-08-03T22:06:57.719Z,25.53
2022-08-03T22:10:01.970Z,25.54
2022-08-03T22:13:06.081Z,25.56
2022-08-03T22:16:11.213Z,25.67
2022-08-03T22:19:17.165Z,25.65
2022-08-03T22:22:28.633Z,25.86
2022-08-03T22:25:36.547Z,25.95
2022-08-03T22:28:40.022Z,25.96
2022-08-03T22:31:58.472Z,26.03
2022-08-03T22:35:06.122Z,25.87
2022-08-03T22:37:56.125Z,25.39
2022-08-03T22:40:59.687Z,25.68
2022-08-03T22:44:04.418Z,25.91
2022-08-03T22:47:08.015Z,25.86
2022-08-03T22:50:31.793Z,25.81
2022-08-03T22:53:36.921Z,25.79
2022-08-03T22:56:40.062Z,25.56
2022-08-03T22:59:43.578Z,25.90
2022-08-03T23:02:48.782Z,25.98
2022-08-03T23:06:01.349Z,25.99
2022-08-03T23:09:11.747Z,25.80
2022-08-03T23:12:17.836Z,25.66
2022-08-03T23:15:21.504Z,25.84
2022-08-03T23:18:25.996Z,25.75
2022-08-03T23:21:53.815Z,25.44
2022-08-03T23:24:52.823Z,25.73
2022-08-03T23:28:05.335Z,25.61
2022-08-03T23:31:09.229Z,25.68
2022-08-03T23:34:16.731Z,25.45
2022-08-03T23:37:20.625Z,25.72
2022-08-03T23:40:27.270Z,25.47
2022-08-03T23:43:52.374Z,25.51
2022-08-03T23:46:55.560Z,25.29
2022-08-03T23:49:58.825Z,25.22
2022-08-03T23:53:19.176Z,25.38
2022-08-03T23:56:35.716Z,25.44
